Time;durP1;ratioP1;P1;durP2;ratioP2;P2;SDS_P1;SDS_P2;PMS_P1;PMS_P2;Temp;Humidity;BMP_temperature;BMP_pressure;BME280_temperature;BME280_humidity;BME280_pressure;Samples;Min_cycle;Max_cycle;Signal;HPM_P1;HPM_P2
2022/12/16 00:01:08;;;;;;;37.03;24.17;;;-0.20;99.90;;;;;;5114293;28;20475;-60
2022/12/16 00:03:37;;;;;;;38.27;24.90;;;-0.20;99.90;;;;;;5114356;28;20517;-60
2022/12/16 00:06:05;;;;;;;35.80;24.60;;;-0.20;99.90;;;;;;5113931;28;20494;-60
2022/12/16 00:08:34;;;;;;;35.37;24.23;;;-0.20;99.90;;;;;;5114210;28;20481;-60
2022/12/16 00:11:02;;;;;;;45.83;26.03;;;-0.20;99.90;;;;;;5113888;28;20501;-60
2022/12/16 00:13:31;;;;;;;38.80;26.27;;;-0.20;99.90;;;;;;5114104;28;20443;-61
2022/12/16 00:15:58;;;;;;;41.93;26.30;;;-0.20;99.90;;;;;;5113856;28;20526;-60
2022/12/16 00:18:26;;;;;;;35.87;25.80;;;-0.30;99.90;;;;;;5113724;28;20977;-60
2022/12/16 00:20:55;;;;;;;36.77;26.20;;;-0.40;99.90;;;;;;5114115;28;20515;-60
2022/12/16 00:23:23;;;;;;;39.63;28.67;;;-0.50;99.90;;;;;;5113830;28;20973;-60
2022/12/16 00:25:51;;;;;;;36.03;25.17;;;-0.50;99.90;;;;;;5113757;28;20990;-60
2022/12/16 00:28:21;;;;;;;37.77;26.57;;;-0.50;99.90;;;;;;5113461;28;20504;-60
2022/12/16 00:30:50;;;;;;;42.10;28.03;;;-0.60;99.90;;;;;;5113978;28;20817;-60
2022/12/16 00:33:18;;;;;;;36.57;25.83;;;-0.70;99.90;;;;;;5113935;28;20502;-60
2022/12/16 00:35:45;;;;;;;36.03;26.50;;;-0.70;99.90;;;;;;5113943;28;20478;-60
2022/12/16 00:38:14;;;;;;;35.00;25.17;;;-0.60;99.90;;;;;;5116620;28;20482;-60
2022/12/16 00:40:42;;;;;;;40.77;26.93;;;-0.50;99.90;;;;;;5117706;28;20549;-60
2022/12/16 00:43:10;;;;;;;40.80;25.40;;;-0.60;99.90;;;;;;5117615;28;20493;-60
2022/12/16 00:45:38;;;;;;;37.33;26.60;;;-0.40;99.90;;;;;;5117634;28;20442;-60
2022/12/16 00:48:06;;;;;;;38.37;25.63;;;-0.50;99.90;;;;;;5117492;28;21026;-60
2022/12/16 00:50:33;;;;;;;40.43;26.20;;;-0.40;99.90;;;;;;5117569;28;20984;-60
2022/12/16 00:53:01;;;;;;;37.53;24.60;;;-0.50;99.90;;;;;;5117441;28;20442;-60
2022/12/16 00:55:31;;;;;;;38.57;24.70;;;-0.50;99.90;;;;;;5117848;28;20450;-60
2022/12/16 00:57:58;;;;;;;43.77;27.10;;;-0.50;99.90;;;;;;5117566;28;20480;-60
2022/12/16 01:00:26;;;;;;;35.70;23.63;;;-0.50;99.90;;;;;;5117356;28;20469;-60
2022/12/16 01:02:58;;;;;;;38.87;24.43;;;-0.50;99.90;;;;;;5117537;28;20970;-60
2022/12/16 01:05:26;;;;;;;38.80;24.97;;;-0.50;99.90;;;;;;5117326;28;20932;-60
2022/12/16 01:07:54;;;;;;;34.23;23.80;;;-0.50;99.90;;;;;;5117369;28;20952;-60
2022/12/16 01:10:22;;;;;;;40.17;24.30;;;-0.50;99.90;;;;;;5117516;28;20498;-60
2022/12/16 01:12:52;;;;;;;41.90;26.50;;;-0.50;99.90;;;;;;5117485;28;20450;-60
2022/12/16 01:15:19;;;;;;;40.30;26.30;;;-0.50;99.90;;;;;;5117604;28;20501;-60
2022/12/16 01:17:47;;;;;;;33.57;23.37;;;-0.60;99.90;;;;;;5117327;28;20519;-60
2022/12/16 01:20:14;;;;;;;34.80;24.50;;;-0.60;99.90;;;;;;5117130;28;20458;-60
2022/12/16 01:22:42;;;;;;;37.77;26.30;;;-0.60;99.90;;;;;;5117139;28;20454;-60
2022/12/16 01:25:11;;;;;;;39.80;25.77;;;-0.70;99.90;;;;;;5117300;28;20833;-60
2022/12/16 01:27:39;;;;;;;40.97;23.90;;;-0.60;99.90;;;;;;5117072;28;20453;-60
2022/12/16 01:30:09;;;;;;;39.90;25.40;;;-0.60;99.90;;;;;;5117163;28;20519;-60
2022/12/16 01:32:37;;;;;;;36.57;23.60;;;-0.50;99.90;;;;;;5117109;28;20433;-60
2022/12/16 01:35:05;;;;;;;34.03;25.53;;;-0.50;99.90;;;;;;5117202;28;20643;-60
2022/12/16 01:37:33;;;;;;;38.97;25.30;;;-0.40;99.90;;;;;;5117283;28;20974;-60
2022/12/16 01:40:01;;;;;;;38.27;26.47;;;-0.50;99.90;;;;;;5116699;28;20474;-60
2022/12/16 01:42:30;;;;;;;48.20;26.10;;;-0.60;99.90;;;;;;5116589;28;20442;-60
2022/12/16 01:44:57;;;;;;;43.30;26.30;;;-0.90;99.90;;;;;;5116566;28;20447;-60
2022/12/16 01:47:31;;;;;;;36.50;23.50;;;-0.70;99.90;;;;;;5116750;28;20474;-60
2022/12/16 01:50:01;;;;;;;38.97;26.00;;;-0.60;99.90;;;;;;5116776;28;20555;-60
2022/12/16 01:52:33;;;;;;;33.47;23.70;;;-0.60;99.90;;;;;;5116348;28;20480;-60
2022/12/16 01:55:06;;;;;;;35.03;22.70;;;-0.60;99.90;;;;;;5116858;28;20423;-60
2022/12/16 01:57:40;;;;;;;36.97;25.00;;;-0.60;99.90;;;;;;5116293;28;20431;-60
2022/12/16 02:00:09;;;;;;;39.13;26.73;;;-0.60;99.90;;;;;;5116275;28;20964;-60
2022/12/16 02:02:38;;;;;;;39.17;24.57;;;-0.70;99.90;;;;;;5116464;28;20459;-60
2022/12/16 02:05:20;;;;;;;35.93;24.37;;;-0.70;99.90;;;;;;5116281;28;20984;-60
2022/12/16 02:07:56;;;;;;;33.17;22.73;;;-0.80;99.90;;;;;;5116563;28;20499;-60
2022/12/16 02:10:35;;;;;;;33.20;25.03;;;-0.80;99.90;;;;;;5115962;28;20575;-60
2022/12/16 02:13:09;;;;;;;37.17;26.20;;;-0.80;99.90;;;;;;5116089;28;20980;-60
2022/12/16 02:15:42;;;;;;;39.63;24.53;;;-0.70;99.90;;;;;;5116764;28;20484;-60
2022/12/16 02:18:23;;;;;;;37.33;23.57;;;-0.60;99.90;;;;;;5116364;28;20482;-60
2022/12/16 02:21:22;;;;;;;39.63;24.20;;;-0.60;99.90;;;;;;5115915;28;20501;-60
2022/12/16 02:24:29;;;;;;;40.40;23.57;;;-0.60;99.90;;;;;;5113556;28;20507;-60
2022/12/16 02:27:30;;;;;;;37.17;24.30;;;-0.50;99.90;;;;;;5115711;28;20441;-60
2022/12/16 02:30:06;;;;;;;34.30;24.20;;;-0.70;99.90;;;;;;5115955;28;20561;-60
2022/12/16 02:32:45;;;;;;;37.90;22.97;;;-0.50;99.90;;;;;;5115943;28;20430;-60
2022/12/16 02:35:21;;;;;;;34.63;24.37;;;-0.70;99.90;;;;;;5115584;28;20462;-60
2022/12/16 02:37:56;;;;;;;35.33;24.33;;;-0.70;99.90;;;;;;5115733;28;20458;-60
2022/12/16 02:40:28;;;;;;;32.83;24.10;;;-0.70;99.90;;;;;;5115501;28;20489;-60
2022/12/16 02:43:01;;;;;;;39.70;24.57;;;-0.60;99.90;;;;;;5115734;28;20470;-60
2022/12/16 02:45:31;;;;;;;33.97;24.60;;;-0.60;99.90;;;;;;5115883;28;20495;-60
2022/12/16 02:48:00;;;;;;;33.33;24.80;;;-0.60;99.90;;;;;;5115253;28;20442;-60
2022/12/16 02:50:33;;;;;;;36.50;24.70;;;-0.70;99.90;;;;;;5115511;28;20586;-60
2022/12/16 02:53:02;;;;;;;35.13;24.20;;;-0.70;99.90;;;;;;5115534;28;20450;-60
2022/12/16 02:55:37;;;;;;;36.37;23.50;;;-0.70;99.90;;;;;;5115201;28;20447;-60
2022/12/16 02:58:16;;;;;;;34.57;23.27;;;-0.80;99.90;;;;;;5115279;28;20817;-60
2022/12/16 03:00:56;;;;;;;44.73;24.37;;;-0.60;99.90;;;;;;5114564;28;20459;-60
2022/12/16 03:03:34;;;;;;;42.60;24.90;;;-0.50;99.90;;;;;;5115422;28;20476;-60
2022/12/16 03:06:02;;;;;;;33.60;22.37;;;-0.60;99.90;;;;;;5115369;28;20430;-60
2022/12/16 03:08:34;;;;;;;36.77;24.13;;;-0.60;99.90;;;;;;5115378;28;20508;-60
2022/12/16 03:11:05;;;;;;;46.40;25.07;;;-0.70;99.90;;;;;;5114853;28;20497;-60
2022/12/16 03:13:37;;;;;;;35.17;24.20;;;-0.70;99.90;;;;;;5114955;28;20450;-60
2022/12/16 03:16:07;;;;;;;30.37;20.77;;;-0.70;99.90;;;;;;5115248;28;20455;-60
2022/12/16 03:18:37;;;;;;;30.93;22.33;;;-0.90;99.90;;;;;;5115066;28;20555;-60
2022/12/16 03:21:08;;;;;;;36.10;24.03;;;-1.00;99.90;;;;;;5114779;28;20458;-60
2022/12/16 03:23:39;;;;;;;31.70;22.17;;;-0.90;99.90;;;;;;5114832;28;20442;-60
2022/12/16 03:26:14;;;;;;;36.03;23.07;;;-1.00;99.90;;;;;;5114978;28;20423;-60
2022/12/16 03:28:49;;;;;;;32.93;23.33;;;-0.80;99.90;;;;;;5114781;28;20430;-60
2022/12/16 03:31:25;;;;;;;37.67;23.00;;;-0.90;99.90;;;;;;5114910;28;20873;-60
2022/12/16 03:33:59;;;;;;;31.17;21.97;;;-0.90;99.90;;;;;;5114583;28;20471;-60
2022/12/16 03:36:30;;;;;;;36.90;23.40;;;-1.00;99.90;;;;;;5114502;28;20466;-60
2022/12/16 03:39:00;;;;;;;29.30;21.43;;;-1.10;99.90;;;;;;5114330;28;20477;-60
2022/12/16 03:41:29;;;;;;;36.43;25.53;;;-1.10;99.90;;;;;;5114290;28;20442;-60
2022/12/16 03:43:57;;;;;;;35.27;23.93;;;-1.00;99.90;;;;;;5114277;28;20533;-60
2022/12/16 03:46:24;;;;;;;33.37;21.97;;;-1.00;99.90;;;;;;5114187;28;20994;-60
2022/12/16 03:48:52;;;;;;;39.20;25.70;;;-0.90;99.90;;;;;;5114428;28;20446;-60
2022/12/16 03:51:21;;;;;;;36.23;23.57;;;-1.00;99.90;;;;;;5114147;28;20492;-60
2022/12/16 03:53:48;;;;;;;36.60;23.03;;;-0.90;99.90;;;;;;5114495;28;20863;-60
2022/12/16 03:56:15;;;;;;;33.83;23.40;;;-0.90;99.90;;;;;;5114074;28;20485;-60
2022/12/16 03:58:44;;;;;;;32.67;22.07;;;-0.70;99.90;;;;;;5113950;28;20450;-60
2022/12/16 04:01:12;;;;;;;31.03;24.27;;;-0.70;99.90;;;;;;5113869;28;20858;-60
2022/12/16 04:03:39;;;;;;;37.33;23.27;;;-0.70;99.90;;;;;;5114016;28;20442;-60
2022/12/16 04:06:07;;;;;;;35.87;21.53;;;-0.70;99.90;;;;;;5113956;28;20458;-60
2022/12/16 04:08:36;;;;;;;30.67;21.87;;;-0.60;99.90;;;;;;5114399;28;20493;-60
2022/12/16 04:25:02;;;;;;;22.30;19.10;;;-0.70;99.90;;;;;;5113856;28;20402;-60
2022/12/16 04:27:30;;;;;;;29.90;19.43;;;-0.60;99.90;;;;;;5114062;28;20423;-60
